createdAt,value
2017-04-19T00:00:22.399Z,59.30
2017-04-19T00:01:28.936Z,59.40
2017-04-19T00:02:35.337Z,59.00
2017-04-19T00:03:40.934Z,59.30
2017-04-19T00:04:46.363Z,59.50
2017-04-19T00:05:52.030Z,59.40
2017-04-19T00:06:57.509Z,59.50
2017-04-19T00:08:03.297Z,59.40
2017-04-19T00:09:08.818Z,59.50
2017-04-19T00:10:14.411Z,59.60
2017-04-19T00:11:19.409Z,59.60
2017-04-19T00:12:25.553Z,60.60
2017-04-19T00:13:31.241Z,60.00
2017-04-19T00:14:36.790Z,59.90
2017-04-19T00:15:42.344Z,59.70
2017-04-19T00:16:47.145Z,59.60
2017-04-19T00:17:53.649Z,59.30
2017-04-19T00:19:00.094Z,59.20
2017-04-19T00:20:06.539Z,59.30
2017-04-19T00:21:12.098Z,59.60
2017-04-19T00:22:17.674Z,59.20
2017-04-19T00:23:23.320Z,59.20
2017-04-19T00:24:29.582Z,59.80
2017-04-19T00:25:35.996Z,60.00
2017-04-19T00:26:41.469Z,59.40
2017-04-19T00:27:47.020Z,59.50
2017-04-19T00:28:52.630Z,59.60
2017-04-19T00:29:58.125Z,59.40
2017-04-19T00:31:03.746Z,59.40
2017-04-19T00:32:09.426Z,59.40
2017-04-19T00:33:15.021Z,59.70
2017-04-19T00:34:20.542Z,60.40
2017-04-19T00:35:26.012Z,61.20
2017-04-19T00:36:31.102Z,61.20
2017-04-19T00:37:36.528Z,61.10
2017-04-19T00:38:42.106Z,60.60
2017-04-19T00:39:48.277Z,60.00
2017-04-19T00:40:53.857Z,59.70
2017-04-19T00:41:58.775Z,59.70
2017-04-19T00:43:05.114Z,61.00
2017-04-19T00:44:10.872Z,60.70
2017-04-19T00:45:17.347Z,60.80
2017-04-19T00:46:22.032Z,60.80
2017-04-19T00:47:28.357Z,60.50
2017-04-19T00:48:33.886Z,61.50
2017-04-19T00:49:39.405Z,60.90
2017-04-19T00:50:44.914Z,60.60
2017-04-19T00:51:50.353Z,60.60
2017-04-19T00:52:55.960Z,60.80
2017-04-19T00:54:01.460Z,60.80
2017-04-19T00:55:07.121Z,61.00
2017-04-19T00:56:12.535Z,61.20
2017-04-19T00:57:18.098Z,60.70
2017-04-19T00:58:22.868Z,60.70
2017-04-19T00:59:28.354Z,60.10
2017-04-19T01:00:34.924Z,60.70
2017-04-19T01:01:41.449Z,61.00
2017-04-19T01:02:46.210Z,60.90
2017-04-19T01:03:52.481Z,60.90
2017-04-19T01:04:58.074Z,60.90
2017-04-19T01:06:02.941Z,60.80
2017-04-19T01:07:08.440Z,60.70
2017-04-19T01:08:13.975Z,61.80
2017-04-19T01:09:19.490Z,61.10
2017-04-19T01:10:25.097Z,61.10
2017-04-19T01:11:31.747Z,60.60
2017-04-19T01:12:37.260Z,61.00
2017-04-19T01:13:42.913Z,60.80
2017-04-19T01:14:48.441Z,61.70
2017-04-19T01:15:54.029Z,62.20
2017-04-19T01:16:59.597Z,60.50
2017-04-19T01:18:05.049Z,60.60
2017-04-19T01:19:09.893Z,60.60
2017-04-19T01:20:16.314Z,59.90
2017-04-19T01:21:21.919Z,60.30
2017-04-19T01:22:26.865Z,60.30
2017-04-19T01:23:32.271Z,61.40
2017-04-19T01:24:37.904Z,61.70
2017-04-19T01:25:44.345Z,60.80
2017-04-19T01:26:49.853Z,61.00
2017-04-19T01:27:55.473Z,61.10
2017-04-19T01:29:00.874Z,61.90
2017-04-19T01:30:05.774Z,61.80
2017-04-19T01:31:12.052Z,62.00
2017-04-19T01:32:17.629Z,62.80
2017-04-19T01:33:23.424Z,63.10
2017-04-19T01:34:29.764Z,62.40
2017-04-19T01:35:35.506Z,62.50
2017-04-19T01:36:40.965Z,60.80
2017-04-19T01:37:46.464Z,60.90
2017-04-19T01:38:52.113Z,61.70
2017-04-19T01:39:56.944Z,61.70
2017-04-19T01:41:03.485Z,60.80
2017-04-19T01:42:09.183Z,61.40
2017-04-19T01:43:14.843Z,61.40
2017-04-19T01:44:21.254Z,61.30
2017-04-19T01:45:26.769Z,61.40
2017-04-19T01:46:31.519Z,61.40
2017-04-19T01:47:37.906Z,61.80
2017-04-19T01:48:42.696Z,61.80
2017-04-19T01:49:47.472Z,61.30
2017-04-19T01:50:53.665Z,61.30
2017-04-19T01:51:58.410Z,61.20
2017-04-19T01:53:04.688Z,62.40
2017-04-19T01:54:10.125Z,62.10
2017-04-19T01:55:15.799Z,62.20
2017-04-19T01:56:22.206Z,62.60
2017-04-19T01:57:27.012Z,62.40
2017-04-19T01:58:32.658Z,63.50
2017-04-19T01:59:39.083Z,63.90
2017-04-19T02:00:44.753Z,63.40
2017-04-19T02:01:51.186Z,62.20
2017-04-19T02:02:56.737Z,63.00
2017-04-19T02:04:02.317Z,63.00
2017-04-19T02:05:07.998Z,63.50
2017-04-19T02:06:52.099Z,63.10
2017-04-19T02:07:58.481Z,63.20
2017-04-19T02:09:04.306Z,63.60
2017-04-19T02:10:09.986Z,63.60
2017-04-19T02:11:15.536Z,63.50
2017-04-19T02:12:22.095Z,63.00
2017-04-19T02:13:27.529Z,65.20
2017-04-19T02:14:33.460Z,65.20
2017-04-19T02:15:39.656Z,64.50
2017-04-19T02:16:45.367Z,63.40
2017-04-19T02:17:50.929Z,63.30
2017-04-19T02:18:56.410Z,63.90
2017-04-19T02:20:01.965Z,64.00
2017-04-19T02:21:07.648Z,64.20
2017-04-19T02:22:13.214Z,63.50
2017-04-19T02:23:18.888Z,63.30
2017-04-19T02:24:24.398Z,63.40
2017-04-19T02:25:29.204Z,63.30
2017-04-19T02:26:35.664Z,63.10
2017-04-19T02:27:40.471Z,62.80
2017-04-19T02:28:46.950Z,63.80
2017-04-19T02:29:52.417Z,63.10
2017-04-19T02:30:57.923Z,62.20
2017-04-19T02:32:02.784Z,61.40
2017-04-19T02:33:09.010Z,62.20
2017-04-19T02:34:15.509Z,62.80
2017-04-19T02:35:20.329Z,62.80
2017-04-19T02:36:26.756Z,63.80
2017-04-19T02:37:32.328Z,63.40
2017-04-19T02:38:37.935Z,62.20
2017-04-19T02:39:42.749Z,62.30
2017-04-19T02:40:49.181Z,62.60
2017-04-19T02:41:54.775Z,61.70
2017-04-19T02:43:00.247Z,60.40
2017-04-19T02:44:05.832Z,61.30
2017-04-19T02:45:12.341Z,62.30
2017-04-19T02:46:17.910Z,61.60
2017-04-19T02:47:23.598Z,63.00
2017-04-19T02:48:29.241Z,62.40
2017-04-19T02:49:34.172Z,62.30
2017-04-19T02:50:39.866Z,60.70
2017-04-19T02:51:46.209Z,61.90
2017-04-19T02:52:52.641Z,62.10
2017-04-19T02:53:58.189Z,61.20
2017-04-19T02:55:03.670Z,60.00
2017-04-19T02:56:09.205Z,60.30
2017-04-19T02:57:14.628Z,61.30
2017-04-19T02:58:19.657Z,61.20
2017-04-19T02:59:25.961Z,60.10
2017-04-19T03:00:31.748Z,60.40
2017-04-19T03:01:37.474Z,61.20
2017-04-19T03:02:42.311Z,61.20
2017-04-19T03:03:48.656Z,60.20
2017-04-19T03:04:54.100Z,61.00
2017-04-19T03:05:58.855Z,61.00
2017-04-19T03:07:05.285Z,61.50
2017-04-19T03:08:11.814Z,61.70
2017-04-19T03:09:17.455Z,61.40
2017-04-19T03:10:22.889Z,61.10
2017-04-19T03:11:29.343Z,61.00
2017-04-19T03:12:34.972Z,61.00
2017-04-19T03:13:40.538Z,61.20
2017-04-19T03:14:45.462Z,61.10
2017-04-19T03:15:51.898Z,62.10
2017-04-19T03:16:56.663Z,61.30
2017-04-19T03:18:02.183Z,61.70
2017-04-19T03:19:08.714Z,61.60
2017-04-19T03:20:13.641Z,61.60
2017-04-19T03:21:20.093Z,61.30
2017-04-19T03:22:25.541Z,60.90
2017-04-19T03:23:30.529Z,61.00
2017-04-19T03:24:36.865Z,60.50
2017-04-19T03:25:42.457Z,59.80
2017-04-19T03:26:47.257Z,59.70
2017-04-19T03:27:53.699Z,60.90
2017-04-19T03:28:59.301Z,60.30
2017-04-19T03:30:04.242Z,60.30
2017-04-19T03:31:10.511Z,59.40
2017-04-19T03:32:16.076Z,59.20
2017-04-19T03:33:21.654Z,59.50
2017-04-19T03:34:27.318Z,59.30
2017-04-19T03:35:33.705Z,59.30
2017-04-19T03:36:38.624Z,59.30
2017-04-19T03:37:44.885Z,59.00
2017-04-19T03:38:49.793Z,58.90
2017-04-19T03:39:56.332Z,58.80
2017-04-19T03:41:01.018Z,58.70
2017-04-19T03:42:06.578Z,58.70
2017-04-19T03:43:12.588Z,58.20
2017-04-19T03:44:18.428Z,59.30
2017-04-19T03:45:24.949Z,60.00
2017-04-19T03:46:29.881Z,59.90
2017-04-19T03:47:35.356Z,59.20
2017-04-19T03:48:41.722Z,59.10
2017-04-19T03:49:46.656Z,59.10
2017-04-19T03:50:53.150Z,59.20
2017-04-19T03:51:59.641Z,59.30
2017-04-19T03:53:05.142Z,58.90
2017-04-19T03:54:10.758Z,59.10
2017-04-19T03:55:16.420Z,59.40
2017-04-19T03:56:22.075Z,59.80
2017-04-19T03:57:27.701Z,59.80
2017-04-19T03:58:34.137Z,59.90
2017-04-19T03:59:39.584Z,59.00
2017-04-19T04:00:45.125Z,59.50
2017-04-19T04:01:50.750Z,61.10
2017-04-19T04:02:56.196Z,60.30
2017-04-19T04:04:01.854Z,61.20
2017-04-19T04:05:07.520Z,60.80
2017-04-19T04:06:13.101Z,60.60
2017-04-19T04:07:18.901Z,59.70
2017-04-19T04:08:23.688Z,59.70
2017-04-19T04:09:29.377Z,59.80
2017-04-19T04:10:35.768Z,61.30
2017-04-19T04:11:41.370Z,61.50
2017-04-19T04:12:46.964Z,61.50
2017-04-19T04:13:51.775Z,60.90
2017-04-19T04:14:57.328Z,60.40
2017-04-19T04:16:03.803Z,60.60
2017-04-19T04:17:10.214Z,60.00
2017-04-19T04:18:15.895Z,59.20
2017-04-19T04:19:22.368Z,59.50
2017-04-19T04:20:27.989Z,59.00
2017-04-19T04:21:32.917Z,59.00
2017-04-19T04:22:39.230Z,59.30
2017-04-19T04:23:44.062Z,59.30
2017-04-19T04:24:50.475Z,59.30
2017-04-19T04:25:56.152Z,59.20
2017-04-19T04:27:01.732Z,58.40
2017-04-19T04:28:06.492Z,58.30
2017-04-19T04:29:12.086Z,58.60
2017-04-19T04:30:18.297Z,58.40
2017-04-19T04:31:23.839Z,58.80
2017-04-19T04:32:28.672Z,58.90
2017-04-19T04:33:34.229Z,58.30
2017-04-19T04:34:39.827Z,58.20
2017-04-19T04:35:46.148Z,57.90
2017-04-19T04:36:50.958Z,57.90
2017-04-19T04:37:57.253Z,57.70
2017-04-19T04:39:02.125Z,57.70
2017-04-19T04:40:07.683Z,58.20
2017-04-19T04:41:14.073Z,58.10
2017-04-19T04:42:19.692Z,58.10
2017-04-19T04:43:25.209Z,58.10
2017-04-19T04:44:30.722Z,58.90
2017-04-19T04:45:36.230Z,58.90
2017-04-19T04:46:42.575Z,58.70
2017-04-19T04:47:47.581Z,58.70
2017-04-19T04:48:53.065Z,58.20
2017-04-19T04:49:58.746Z,59.00
2017-04-19T04:51:05.249Z,58.90
2017-04-19T04:52:11.747Z,58.50
2017-04-19T04:53:16.732Z,58.50
2017-04-19T04:54:23.018Z,59.40
2017-04-19T04:55:27.841Z,59.40
2017-04-19T04:56:32.572Z,59.40
2017-04-19T04:57:38.197Z,59.90
2017-04-19T04:58:43.829Z,59.20
2017-04-19T04:59:50.069Z,57.80
2017-04-19T05:00:54.980Z,57.90
2017-04-19T05:02:01.456Z,58.20
2017-04-19T05:03:07.922Z,58.80
2017-04-19T05:04:12.647Z,58.60
2017-04-19T05:05:18.047Z,58.60
2017-04-19T05:06:23.660Z,58.00
2017-04-19T05:07:30.001Z,58.50
2017-04-19T05:08:35.557Z,58.20
2017-04-19T05:09:40.538Z,58.30
2017-04-19T05:10:47.000Z,58.10
2017-04-19T05:11:51.893Z,58.10
2017-04-19T05:12:59.428Z,58.60
2017-04-19T05:14:04.251Z,58.60
2017-04-19T05:15:10.540Z,58.50
2017-04-19T05:16:15.994Z,58.00
2017-04-19T05:17:20.814Z,58.00
2017-04-19T05:18:27.186Z,58.40
2017-04-19T05:19:33.609Z,58.00
2017-04-19T05:20:38.391Z,57.90
2017-04-19T05:21:44.806Z,58.70
2017-04-19T05:22:51.041Z,58.60
2017-04-19T05:23:56.531Z,58.60
2017-04-19T05:25:02.507Z,59.50
2017-04-19T05:26:08.101Z,58.40
2017-04-19T05:27:13.731Z,58.50
2017-04-19T05:28:18.456Z,58.50
2017-04-19T05:29:24.737Z,59.90
2017-04-19T05:30:29.581Z,59.90
2017-04-19T05:31:35.842Z,61.30
2017-04-19T05:32:40.589Z,61.20
2017-04-19T05:33:46.849Z,59.30
2017-04-19T05:34:51.718Z,59.30
2017-04-19T05:35:57.974Z,59.70
2017-04-19T05:37:03.668Z,58.30
2017-04-19T05:38:09.247Z,58.10
2017-04-19T05:39:14.950Z,59.30
2017-04-19T05:40:20.453Z,58.60
2017-04-19T05:41:25.276Z,58.50
2017-04-19T05:42:31.502Z,57.90
2017-04-19T05:43:37.274Z,58.60
2017-04-19T05:44:42.828Z,58.60
2017-04-19T05:45:50.020Z,58.10
2017-04-19T05:46:54.840Z,58.10
2017-04-19T05:47:59.544Z,58.00
2017-04-19T05:49:05.842Z,57.70
2017-04-19T05:50:11.387Z,57.60
2017-04-19T05:51:16.392Z,57.50
2017-04-19T05:52:22.482Z,57.20
2017-04-19T05:53:27.222Z,57.20
2017-04-19T05:54:33.514Z,57.60
2017-04-19T05:55:39.287Z,57.20
2017-04-19T05:56:45.755Z,56.80
2017-04-19T05:57:50.601Z,56.80
2017-04-19T05:58:56.800Z,57.30
2017-04-19T06:00:02.548Z,57.00
2017-04-19T06:01:08.853Z,57.20
2017-04-19T06:02:14.216Z,57.20
2017-04-19T06:03:20.167Z,57.50
2017-04-19T06:04:25.657Z,57.30
2017-04-19T06:05:31.164Z,57.60
2017-04-19T06:06:36.693Z,58.90
2017-04-19T06:07:42.466Z,57.50
2017-04-19T06:08:48.064Z,57.80
2017-04-19T06:09:52.774Z,57.70
2017-04-19T06:10:59.147Z,57.20
2017-04-19T06:12:04.082Z,57.00
2017-04-19T06:13:10.397Z,57.30
2017-04-19T06:14:16.032Z,57.20
2017-04-19T06:15:21.073Z,57.20
2017-04-19T06:16:27.202Z,56.90
2017-04-19T06:17:32.742Z,57.20
2017-04-19T06:18:38.391Z,56.90
2017-04-19T06:19:43.887Z,56.60
2017-04-19T06:20:49.382Z,56.40
2017-04-19T06:21:55.120Z,56.40
2017-04-19T06:23:00.756Z,56.60
2017-04-19T06:24:06.439Z,56.40
2017-04-19T06:25:12.612Z,55.90
2017-04-19T06:26:17.382Z,55.90
2017-04-19T06:27:23.089Z,55.30
2017-04-19T06:28:29.425Z,55.00
2017-04-19T06:29:34.205Z,55.00
2017-04-19T06:30:40.508Z,55.10
2017-04-19T06:31:45.977Z,54.70
2017-04-19T06:32:51.549Z,54.40
2017-04-19T06:33:56.338Z,54.40
2017-04-19T06:35:02.027Z,55.10
2017-04-19T06:36:07.466Z,54.70
2017-04-19T06:37:13.782Z,55.30
2017-04-19T06:38:19.366Z,54.80
2017-04-19T06:39:24.142Z,54.50
2017-04-19T06:40:30.489Z,54.00
2017-04-19T06:41:36.141Z,54.00
2017-04-19T06:42:41.571Z,54.10
2017-04-19T06:43:47.138Z,53.90
2017-04-19T06:44:52.638Z,53.90
2017-04-19T06:45:58.363Z,53.90
2017-04-19T06:47:04.043Z,54.10
2017-04-19T06:48:09.609Z,54.10
2017-04-19T06:49:14.265Z,54.00
2017-04-19T06:50:19.890Z,53.50
2017-04-19T06:51:25.430Z,53.10
2017-04-19T06:52:31.032Z,52.40
2017-04-19T06:53:37.465Z,52.70
2017-04-19T06:54:43.081Z,52.70
2017-04-19T06:55:49.457Z,52.10
2017-04-19T06:56:55.028Z,52.70
2017-04-19T06:58:00.694Z,52.70
2017-04-19T06:59:06.088Z,52.30
2017-04-19T07:00:11.783Z,51.30
2017-04-19T07:01:17.293Z,52.00
2017-04-19T07:02:23.586Z,52.10
2017-04-19T07:03:29.150Z,52.40
2017-04-19T07:04:34.132Z,52.40
2017-04-19T07:05:39.528Z,51.30
2017-04-19T07:06:44.353Z,51.30
2017-04-19T07:07:49.805Z,50.80
2017-04-19T07:08:54.492Z,50.80
2017-04-19T07:09:59.225Z,50.50
2017-04-19T07:11:05.599Z,50.30
2017-04-19T07:12:10.296Z,50.30
2017-04-19T07:13:17.665Z,50.40
2017-04-19T07:14:22.431Z,50.30
2017-04-19T07:15:27.967Z,51.00
2017-04-19T07:16:34.260Z,49.10
2017-04-19T07:17:39.725Z,50.50
2017-04-19T07:18:45.361Z,50.30
2017-04-19T07:19:50.936Z,48.60
2017-04-19T07:20:56.625Z,48.50
2017-04-19T07:22:03.001Z,48.00
2017-04-19T07:23:08.627Z,48.20
2017-04-19T07:24:14.131Z,48.80
2017-04-19T07:25:19.586Z,48.70
2017-04-19T07:26:25.190Z,48.20
2017-04-19T07:27:30.877Z,48.70
2017-04-19T07:28:35.577Z,48.70
2017-04-19T07:29:41.882Z,48.40
2017-04-19T07:30:47.429Z,48.40
2017-04-19T07:31:53.778Z,48.60
2017-04-19T07:32:59.366Z,48.50
2017-04-19T07:34:04.108Z,48.50
2017-04-19T07:35:10.473Z,48.00
2017-04-19T07:36:15.280Z,48.00
2017-04-19T07:37:20.774Z,48.20
2017-04-19T07:38:27.143Z,49.00
2017-04-19T07:39:32.810Z,47.70
2017-04-19T07:40:37.674Z,47.70
2017-04-19T07:41:43.240Z,46.90
2017-04-19T07:42:49.691Z,47.10
2017-04-19T07:43:54.393Z,47.10
2017-04-19T07:44:59.141Z,46.90
2017-04-19T07:46:06.517Z,46.90
2017-04-19T07:47:13.054Z,47.90
2017-04-19T07:48:18.789Z,48.30
2017-04-19T07:49:23.711Z,48.30
2017-04-19T07:50:30.105Z,48.80
2017-04-19T07:51:34.953Z,49.00
2017-04-19T07:52:40.425Z,48.50
2017-04-19T07:53:46.840Z,48.00
2017-04-19T07:54:51.515Z,48.00
2017-04-19T07:55:57.215Z,48.40
2017-04-19T07:57:02.798Z,46.40
2017-04-19T07:58:08.221Z,47.10
2017-04-19T07:59:14.679Z,45.30
2017-04-19T08:00:20.385Z,45.00
2017-04-19T08:01:25.173Z,45.00
2017-04-19T08:02:31.456Z,47.10
2017-04-19T08:03:36.153Z,47.10
2017-04-19T08:04:43.459Z,47.40
2017-04-19T08:05:48.889Z,45.40
2017-04-19T08:06:54.390Z,45.50
2017-04-19T08:08:00.096Z,45.50
2017-04-19T08:09:06.468Z,47.00
2017-04-19T08:10:12.025Z,47.10
2017-04-19T08:11:17.631Z,47.90
2017-04-19T08:12:23.255Z,46.20
2017-04-19T08:13:29.938Z,46.40
2017-04-19T08:14:35.549Z,45.70
2017-04-19T08:15:41.541Z,46.20
2017-04-19T08:16:47.813Z,44.10
2017-04-19T08:17:54.237Z,42.90
2017-04-19T08:18:59.077Z,42.80
2017-04-19T08:20:04.708Z,42.10
2017-04-19T08:21:09.485Z,39.30
2017-04-19T08:22:14.880Z,39.30
2017-04-19T08:23:20.545Z,39.50
2017-04-19T08:24:26.281Z,39.00
2017-04-19T08:25:31.906Z,40.40
2017-04-19T08:26:37.369Z,40.00
2017-04-19T08:27:43.860Z,39.60
2017-04-19T08:28:48.740Z,39.60
2017-04-19T08:29:55.257Z,41.20
2017-04-19T08:31:00.929Z,41.60
2017-04-19T08:32:05.730Z,41.60
2017-04-19T08:33:11.312Z,41.00
2017-04-19T08:34:17.593Z,41.50
2017-04-19T08:35:22.599Z,41.30
2017-04-19T08:36:28.731Z,41.10
2017-04-19T08:37:34.240Z,40.40
2017-04-19T08:38:39.838Z,40.20
2017-04-19T08:39:45.272Z,40.30
2017-04-19T08:40:50.033Z,40.20
2017-04-19T08:41:56.284Z,40.50
2017-04-19T08:43:01.226Z,40.50
2017-04-19T08:44:07.548Z,42.10
2017-04-19T08:45:13.199Z,41.00
2017-04-19T08:46:18.714Z,42.60
2017-04-19T08:47:23.374Z,42.50
2017-04-19T08:48:29.657Z,40.40
2017-04-19T08:49:35.163Z,39.10
2017-04-19T08:50:40.651Z,39.10
2017-04-19T08:51:46.459Z,41.30
2017-04-19T08:52:51.936Z,41.70
2017-04-19T08:53:57.425Z,39.80
2017-04-19T08:55:02.979Z,38.80
2017-04-19T08:56:09.381Z,39.50
2017-04-19T08:57:14.975Z,40.00
2017-04-19T08:58:19.767Z,40.00
2017-04-19T08:59:26.064Z,40.50
2017-04-19T09:00:31.589Z,40.20
2017-04-19T09:01:37.049Z,40.10
2017-04-19T09:02:42.388Z,40.10
2017-04-19T09:03:48.194Z,40.00
2017-04-19T09:04:53.768Z,40.60
2017-04-19T09:05:59.459Z,40.40
2017-04-19T09:07:04.283Z,40.30
2017-04-19T09:08:09.944Z,40.10
2017-04-19T09:09:16.199Z,41.70
2017-04-19T09:10:21.800Z,41.20
2017-04-19T09:11:26.536Z,41.00
2017-04-19T09:12:32.854Z,38.20
2017-04-19T09:13:39.259Z,38.10
2017-04-19T09:14:44.726Z,39.60
2017-04-19T09:15:50.245Z,37.90
2017-04-19T09:16:55.711Z,37.80
2017-04-19T09:18:01.462Z,38.10
2017-04-19T09:19:07.098Z,37.10
2017-04-19T09:20:12.627Z,37.00
2017-04-19T09:21:18.160Z,39.10
2017-04-19T09:22:23.138Z,39.10
2017-04-19T09:23:28.511Z,37.40
2017-04-19T09:24:34.852Z,37.30
2017-04-19T09:25:40.368Z,38.10
2017-04-19T09:26:45.853Z,39.10
2017-04-19T09:27:50.614Z,39.00
2017-04-19T09:28:56.977Z,39.00
2017-04-19T09:30:02.745Z,42.30
2017-04-19T09:31:08.418Z,42.70
2017-04-19T09:32:14.800Z,39.60
2017-04-19T09:33:20.338Z,40.90
2017-04-19T09:34:25.910Z,37.40
2017-04-19T09:35:31.702Z,37.30
2017-04-19T09:36:37.722Z,38.50
2017-04-19T09:37:43.396Z,38.20
2017-04-19T09:38:48.878Z,37.20
2017-04-19T09:39:54.268Z,35.90
2017-04-19T09:40:59.422Z,35.90
2017-04-19T09:42:05.736Z,37.10
2017-04-19T09:43:11.349Z,35.30
2017-04-19T09:44:16.786Z,35.70
2017-04-19T09:45:22.345Z,38.30
2017-04-19T09:46:28.730Z,38.20
2017-04-19T09:47:34.333Z,37.00
2017-04-19T09:48:39.143Z,37.00
2017-04-19T09:49:45.464Z,38.40
2017-04-19T09:50:50.209Z,38.30
2017-04-19T09:51:55.950Z,36.80
2017-04-19T09:53:02.063Z,36.60
2017-04-19T09:54:07.714Z,36.90
2017-04-19T09:55:13.297Z,36.60
2017-04-19T09:56:18.101Z,36.60
2017-04-19T09:57:23.720Z,39.20
2017-04-19T09:58:30.105Z,37.80
2017-04-19T09:59:34.740Z,37.90
2017-04-19T10:00:40.325Z,36.90
2017-04-19T10:01:45.838Z,36.00
2017-04-19T10:02:51.568Z,36.00
2017-04-19T10:03:56.397Z,36.50
2017-04-19T10:05:02.694Z,36.00
2017-04-19T10:06:08.353Z,35.90
2017-04-19T10:07:13.834Z,37.80
2017-04-19T10:08:18.675Z,37.70
2017-04-19T10:09:23.929Z,37.60
2017-04-19T10:10:30.173Z,37.30
2017-04-19T10:11:34.948Z,37.10
2017-04-19T10:12:41.381Z,40.90
2017-04-19T10:13:47.922Z,38.30
2017-04-19T10:14:52.724Z,38.80
2017-04-19T10:15:58.209Z,36.10
2017-04-19T10:17:03.154Z,36.40
2017-04-19T10:18:09.448Z,37.30
2017-04-19T10:19:14.905Z,36.10
2017-04-19T10:20:20.402Z,44.50
2017-04-19T10:21:25.944Z,37.30
2017-04-19T10:22:30.636Z,37.20
2017-04-19T10:23:36.223Z,37.80
2017-04-19T10:24:41.836Z,36.80
2017-04-19T10:25:48.240Z,36.20
2017-04-19T10:26:53.846Z,37.90
2017-04-19T10:27:58.737Z,37.70
2017-04-19T10:29:05.081Z,39.80
2017-04-19T10:30:10.678Z,37.90
2017-04-19T10:31:15.429Z,37.80
2017-04-19T10:32:21.693Z,39.60
2017-04-19T10:33:27.312Z,38.30
2017-04-19T10:34:32.196Z,38.20
2017-04-19T10:35:37.170Z,38.80
2017-04-19T10:36:42.782Z,39.20
2017-04-19T10:37:49.123Z,36.50
2017-04-19T10:38:54.885Z,36.40
2017-04-19T10:40:00.504Z,36.50
2017-04-19T10:41:05.185Z,37.80
2017-04-19T10:42:10.811Z,39.80
2017-04-19T10:43:16.413Z,40.90
2017-04-19T10:44:22.789Z,38.20
2017-04-19T10:45:27.609Z,38.20
2017-04-19T10:46:33.910Z,39.00
2017-04-19T10:47:38.730Z,41.80
2017-04-19T10:48:44.237Z,37.50
2017-04-19T10:49:50.605Z,39.10
2017-04-19T10:50:55.318Z,39.10
2017-04-19T10:52:00.978Z,40.30
2017-04-19T10:53:05.950Z,40.20
2017-04-19T10:54:11.500Z,38.50
2017-04-19T10:55:17.893Z,39.10
2017-04-19T10:56:23.382Z,41.20
2017-04-19T10:57:28.472Z,41.30
2017-04-19T10:58:33.946Z,38.70
2017-04-19T10:59:38.711Z,38.50
2017-04-19T11:00:44.232Z,41.20
2017-04-19T11:01:49.853Z,38.30
2017-04-19T11:02:56.172Z,37.80
2017-04-19T11:04:01.757Z,37.30
2017-04-19T11:05:06.432Z,37.30
2017-04-19T11:06:12.892Z,37.00
2017-04-19T11:07:18.455Z,35.60
2017-04-19T11:08:23.940Z,35.70
2017-04-19T11:09:29.470Z,36.00
2017-04-19T11:10:34.181Z,36.00
2017-04-19T11:11:40.478Z,36.40
2017-04-19T11:12:45.892Z,41.50
2017-04-19T11:13:52.558Z,40.30
2017-04-19T11:14:58.130Z,41.30
2017-04-19T11:16:02.907Z,40.80
2017-04-19T11:17:09.205Z,36.30
2017-04-19T11:18:13.926Z,36.20
2017-04-19T11:19:20.210Z,34.80
2017-04-19T11:20:25.870Z,34.30
2017-04-19T11:21:31.292Z,37.90
2017-04-19T11:22:36.892Z,34.90
2017-04-19T11:23:41.590Z,34.80
2017-04-19T11:24:46.467Z,35.40
2017-04-19T11:25:52.555Z,38.70
2017-04-19T11:26:58.216Z,34.10
2017-04-19T11:28:03.858Z,36.60
2017-04-19T11:29:10.286Z,37.30
2017-04-19T11:30:15.990Z,34.10
2017-04-19T11:31:20.815Z,34.10
2017-04-19T11:32:27.093Z,34.90
2017-04-19T11:33:32.710Z,35.20
2017-04-19T11:34:38.172Z,37.70
2017-04-19T11:35:43.975Z,36.10
2017-04-19T11:36:50.373Z,34.60
2017-04-19T11:37:56.020Z,34.20
2017-04-19T11:39:01.752Z,35.30
2017-04-19T11:40:07.675Z,35.60
2017-04-19T11:41:13.909Z,35.40
2017-04-19T11:42:19.352Z,35.00
2017-04-19T11:43:24.937Z,34.60
2017-04-19T11:44:30.388Z,35.70
2017-04-19T11:45:35.403Z,35.50
2017-04-19T11:46:41.965Z,34.50
2017-04-19T11:47:46.684Z,34.50
2017-04-19T11:48:53.273Z,32.10
2017-04-19T11:49:59.604Z,32.70
2017-04-19T11:51:06.091Z,31.10
2017-04-19T11:52:12.137Z,33.80
2017-04-19T11:53:18.573Z,33.90
2017-04-19T11:54:24.162Z,33.00
2017-04-19T11:55:29.112Z,33.00
2017-04-19T11:56:35.344Z,33.40
2017-04-19T11:57:40.980Z,32.60
2017-04-19T11:58:46.469Z,34.40
2017-04-19T11:59:51.915Z,32.10
2017-04-19T12:00:57.472Z,32.10
2017-04-19T12:02:02.215Z,32.10
2017-04-19T12:03:07.958Z,32.90
2017-04-19T12:04:14.329Z,32.00
2017-04-19T12:05:19.249Z,32.00
2017-04-19T12:06:25.608Z,31.60
2017-04-19T12:07:31.188Z,33.70
2017-04-19T12:08:36.144Z,33.70
2017-04-19T12:09:42.449Z,34.80
2017-04-19T12:10:47.208Z,35.10
2017-04-19T12:11:53.648Z,35.50
2017-04-19T12:12:59.246Z,33.70
2017-04-19T12:14:05.015Z,33.70
2017-04-19T12:15:09.753Z,35.30
2017-04-19T12:16:16.160Z,34.40
2017-04-19T12:17:20.863Z,34.20
2017-04-19T12:18:27.274Z,33.40
2017-04-19T12:19:33.732Z,33.70
2017-04-19T12:20:39.335Z,31.00
2017-04-19T12:21:44.832Z,31.40
2017-04-19T12:22:50.349Z,31.90
2017-04-19T12:23:55.933Z,31.90
2017-04-19T12:25:01.656Z,35.90
2017-04-19T12:26:07.289Z,39.10
2017-04-19T12:27:12.800Z,34.90
2017-04-19T12:28:18.405Z,32.90
2017-04-19T12:29:23.904Z,34.00
2017-04-19T12:30:29.556Z,34.50
2017-04-19T12:31:35.192Z,34.30
2017-04-19T12:32:40.866Z,34.20
2017-04-19T12:33:47.264Z,41.00
2017-04-19T12:34:52.879Z,37.40
2017-04-19T12:35:58.051Z,37.40
2017-04-19T12:37:04.265Z,38.40
2017-04-19T12:38:09.917Z,38.30
2017-04-19T12:39:16.385Z,37.30
2017-04-19T12:40:21.137Z,37.20
2017-04-19T12:41:28.337Z,34.70
2017-04-19T12:42:33.214Z,34.70
2017-04-19T12:43:39.541Z,34.20
2017-04-19T12:44:45.100Z,36.10
2017-04-19T12:45:50.817Z,34.50
2017-04-19T12:46:56.538Z,35.80
2017-04-19T12:48:02.939Z,36.30
2017-04-19T12:49:08.484Z,35.50
2017-04-19T12:50:13.232Z,35.40
2017-04-19T12:51:19.637Z,34.40
2017-04-19T12:52:25.294Z,35.30
2017-04-19T12:53:31.693Z,34.20
2017-04-19T12:54:37.186Z,35.10
2017-04-19T12:55:42.808Z,36.60
2017-04-19T12:56:49.216Z,38.00
2017-04-19T12:57:54.125Z,38.00
2017-04-19T12:58:59.701Z,38.80
2017-04-19T13:00:06.136Z,37.80
2017-04-19T13:01:11.822Z,37.90
2017-04-19T13:02:16.636Z,38.20
2017-04-19T13:03:23.050Z,33.60
2017-04-19T13:04:27.856Z,33.40
2017-04-19T13:05:33.504Z,33.90
2017-04-19T13:06:39.729Z,33.20
2017-04-19T13:07:45.260Z,34.80
2017-04-19T13:08:50.916Z,32.60
2017-04-19T13:09:56.576Z,32.60
2017-04-19T13:11:02.194Z,33.90
2017-04-19T13:12:08.561Z,35.20
2017-04-19T13:13:14.089Z,32.10
2017-04-19T13:14:20.559Z,35.60
2017-04-19T13:15:26.212Z,33.20
2017-04-19T13:16:31.664Z,37.20
2017-04-19T13:17:37.213Z,32.30
2017-04-19T13:18:42.788Z,33.90
2017-04-19T13:19:47.682Z,33.70
2017-04-19T13:20:53.991Z,33.10
2017-04-19T13:21:59.618Z,33.80
2017-04-19T13:23:04.456Z,33.80
2017-04-19T13:24:09.967Z,34.20
2017-04-19T13:25:15.669Z,27.80
2017-04-19T13:26:22.016Z,29.00
2017-04-19T13:27:26.749Z,28.90
2017-04-19T13:28:32.213Z,28.20
2017-04-19T13:29:37.749Z,30.00
2017-04-19T13:30:44.139Z,31.30
2017-04-19T13:31:48.865Z,31.40
2017-04-19T13:32:55.277Z,32.10
2017-04-19T13:34:00.913Z,33.40
2017-04-19T13:35:05.788Z,33.30
2017-04-19T13:36:11.496Z,32.00
2017-04-19T13:37:17.565Z,31.70
2017-04-19T13:38:23.241Z,31.20
2017-04-19T13:39:28.889Z,31.80
2017-04-19T13:40:34.494Z,34.40
2017-04-19T13:41:39.931Z,34.60
2017-04-19T13:42:45.460Z,26.20
2017-04-19T13:43:51.146Z,28.40
2017-04-19T13:44:56.796Z,29.80
2017-04-19T13:46:02.461Z,28.70
2017-04-19T13:47:08.120Z,29.30
2017-04-19T13:48:13.598Z,26.20
2017-04-19T13:49:18.458Z,26.00
2017-04-19T13:50:23.968Z,27.00
2017-04-19T13:51:30.313Z,27.80
2017-04-19T13:52:35.201Z,27.70
2017-04-19T13:53:40.777Z,30.20
2017-04-19T13:54:47.116Z,33.50
2017-04-19T13:55:52.665Z,34.30
2017-04-19T13:56:57.868Z,34.30
2017-04-19T13:58:04.053Z,34.30
2017-04-19T13:59:09.552Z,34.80
2017-04-19T14:00:15.068Z,34.30
2017-04-19T14:01:20.770Z,33.60
2017-04-19T14:02:26.247Z,33.70
2017-04-19T14:03:32.308Z,34.20
2017-04-19T14:04:37.924Z,34.20
2017-04-19T14:05:43.182Z,34.80